Time;durP1;ratioP1;P1;durP2;ratioP2;P2;SDS_P1;SDS_P2;PMS_P1;PMS_P2;Temp;Humidity;BMP_temperature;BMP_pressure;BME280_temperature;BME280_humidity;BME280_pressure;Samples;Min_cycle;Max_cycle;Signal;HPM_P1;HPM_P2
2021/05/19 00:01:24;;;;;;;1.17;0.90;;;11.10;99.90;;;;;;4155423;28;20088;-61
2021/05/19 00:03:25;;;;;;;1.60;1.00;;;11.10;99.90;;;;;;4153478;28;20087;-61
2021/05/19 00:05:26;;;;;;;9.10;1.43;;;11.00;99.90;;;;;;4154844;28;20092;-63
2021/05/19 00:07:27;;;;;;;1.23;0.90;;;11.00;99.90;;;;;;4155339;28;20095;-61
2021/05/19 00:09:28;;;;;;;0.80;0.80;;;10.90;99.90;;;;;;4154591;28;20430;-61
2021/05/19 00:11:30;;;;;;;1.33;0.93;;;10.90;99.90;;;;;;4155106;28;20107;-61
2021/05/19 00:13:32;;;;;;;2.50;0.90;;;10.90;99.90;;;;;;4155045;28;20131;-62
2021/05/19 00:15:34;;;;;;;1.90;1.53;;;10.80;99.90;;;;;;4155479;28;20029;-61
2021/05/19 00:17:43;;;;;;;2.50;1.33;;;10.80;99.90;;;;;;4154258;28;20103;-62
2021/05/19 00:19:44;;;;;;;4.10;3.70;;;10.70;99.90;;;;;;4155320;28;20045;-61
2021/05/19 00:21:46;;;;;;;5.33;2.83;;;10.70;99.90;;;;;;4153809;28;20207;-61
2021/05/19 00:23:47;;;;;;;3.40;3.10;;;10.70;99.90;;;;;;4155689;28;20045;-61
2021/05/19 00:25:48;;;;;;;3.27;2.70;;;10.70;99.90;;;;;;4154125;28;20033;-59
2021/05/19 00:27:51;;;;;;;3.37;3.07;;;10.60;99.90;;;;;;4156331;28;20033;-61
2021/05/19 00:29:53;;;;;;;2.17;2.07;;;10.60;99.90;;;;;;4157416;28;20041;-61
2021/05/19 00:31:55;;;;;;;1.70;1.60;;;10.60;99.90;;;;;;4158548;28;20073;-61
2021/05/19 00:33:57;;;;;;;1.00;1.00;;;10.60;99.90;;;;;;4158013;28;20059;-61
2021/05/19 00:35:58;;;;;;;2.07;1.37;;;10.50;99.90;;;;;;4159734;28;20092;-61
2021/05/19 00:37:59;;;;;;;1.13;1.03;;;10.50;99.90;;;;;;4158291;28;20092;-61
2021/05/19 00:40:00;;;;;;;2.00;1.10;;;10.50;99.90;;;;;;4158058;28;20083;-61
2021/05/19 00:42:01;;;;;;;1.87;1.70;;;10.40;99.90;;;;;;4158127;28;20038;-62
2021/05/19 00:44:05;;;;;;;4.03;3.73;;;10.40;99.90;;;;;;4157608;28;20037;-61
2021/05/19 00:46:07;;;;;;;5.70;4.80;;;10.40;99.90;;;;;;4157820;28;20087;-62
2021/05/19 00:48:11;;;;;;;5.27;4.77;;;10.40;99.90;;;;;;4155952;28;20460;-62
2021/05/19 00:50:20;;;;;;;8.23;6.00;;;10.30;99.90;;;;;;4157077;28;20037;-61
2021/05/19 00:52:21;;;;;;;8.87;4.53;;;10.30;99.90;;;;;;4156819;28;20436;-62
2021/05/19 00:54:22;;;;;;;8.00;5.30;;;10.30;99.90;;;;;;4158272;28;20088;-62
2021/05/19 00:56:25;;;;;;;6.33;5.73;;;10.30;99.90;;;;;;4156954;28;20029;-61
2021/05/19 00:58:27;;;;;;;4.70;4.30;;;10.20;99.90;;;;;;4158146;28;20095;-62
2021/05/19 01:00:31;;;;;;;6.87;6.17;;;10.20;99.90;;;;;;4156921;28;20071;-62
2021/05/19 01:02:32;;;;;;;5.87;3.13;;;10.20;99.90;;;;;;4158442;28;20058;-61
2021/05/19 01:04:33;;;;;;;20.27;3.30;;;10.20;99.90;;;;;;4156895;28;20041;-61
2021/05/19 01:06:51;;;;;;;14.57;4.00;;;10.20;99.90;;;;;;4158367;28;20520;-63
2021/05/19 01:11:14;;;;;;;7.18;3.90;;;10.20;99.90;;;;;;4142289;28;20058;-64
2021/05/19 01:13:16;;;;;;;10.47;7.10;;;10.10;99.90;;;;;;4140428;28;20046;-62
2021/05/19 01:15:17;;;;;;;16.00;7.67;;;10.20;99.90;;;;;;4142192;28;20026;-62
2021/05/19 01:17:19;;;;;;;15.50;9.93;;;10.10;99.90;;;;;;4140242;28;20046;-62
2021/05/19 01:19:22;;;;;;;12.63;9.37;;;10.10;99.90;;;;;;4141993;28;20050;-62
2021/05/19 01:21:24;;;;;;;14.13;10.37;;;10.10;99.90;;;;;;4140678;28;20034;-61
2021/05/19 01:23:30;;;;;;;8.10;5.27;;;10.10;99.90;;;;;;4140999;28;20140;-62
2021/05/19 01:25:33;;;;;;;2.40;2.20;;;10.10;99.90;;;;;;4140979;28;20574;-62
2021/05/19 01:27:34;;;;;;;2.97;2.37;;;10.00;99.90;;;;;;4140903;28;20038;-60
2021/05/19 01:29:35;;;;;;;3.03;2.47;;;10.00;99.90;;;;;;4141136;28;20470;-60
2021/05/19 01:31:36;;;;;;;3.53;2.70;;;10.00;99.90;;;;;;4141167;28;20100;-61
2021/05/19 01:33:39;;;;;;;5.17;3.43;;;10.00;99.90;;;;;;4150991;28;20099;-60
2021/05/19 01:35:40;;;;;;;5.20;3.90;;;10.00;99.90;;;;;;4156605;28;20426;-61
2021/05/19 01:37:46;;;;;;;6.27;4.23;;;10.00;99.90;;;;;;4157255;28;20037;-61
2021/05/19 01:39:47;;;;;;;3.13;2.33;;;10.10;99.90;;;;;;4155245;28;20025;-62
2021/05/19 01:41:50;;;;;;;4.57;2.63;;;10.10;99.90;;;;;;4157736;28;20037;-61
2021/05/19 01:43:51;;;;;;;5.13;2.37;;;10.10;99.90;;;;;;4156489;28;20046;-61
2021/05/19 01:45:52;;;;;;;3.20;2.40;;;10.10;99.90;;;;;;4157322;28;20037;-61
2021/05/19 01:47:55;;;;;;;3.73;2.70;;;10.10;99.90;;;;;;4156528;28;20030;-61
2021/05/19 01:49:56;;;;;;;6.03;3.40;;;10.10;99.90;;;;;;4158047;28;20148;-61
2021/05/19 01:51:59;;;;;;;7.23;4.23;;;10.10;99.90;;;;;;4156617;28;20532;-61
2021/05/19 01:54:01;;;;;;;7.97;4.17;;;10.10;99.90;;;;;;4157944;28;20433;-62
2021/05/19 01:56:02;;;;;;;10.33;4.87;;;10.10;99.90;;;;;;4156413;28;20037;-61
2021/05/19 01:58:05;;;;;;;5.60;3.80;;;10.10;99.90;;;;;;4156773;28;20111;-61
2021/05/19 02:00:08;;;;;;;5.03;3.00;;;10.10;99.90;;;;;;4156675;28;20029;-61
2021/05/19 02:02:09;;;;;;;2.50;1.60;;;10.20;99.90;;;;;;4156697;28;20087;-63
2021/05/19 02:04:12;;;;;;;3.47;2.00;;;10.20;99.90;;;;;;4156784;28;20874;-61
2021/05/19 02:06:13;;;;;;;6.53;4.07;;;10.20;99.90;;;;;;4157029;28;20041;-61
2021/05/19 02:08:14;;;;;;;6.07;4.83;;;10.20;99.90;;;;;;4156655;28;20033;-63
2021/05/19 02:10:16;;;;;;;7.87;5.20;;;10.20;99.90;;;;;;4156368;28;20030;-61
2021/05/19 02:12:17;;;;;;;4.83;4.30;;;10.20;99.90;;;;;;4157501;28;20580;-61
2021/05/19 02:14:19;;;;;;;3.87;3.00;;;10.20;99.90;;;;;;4156318;28;20042;-62
2021/05/19 02:16:20;;;;;;;6.03;2.70;;;10.20;99.90;;;;;;4157255;28;20100;-61
2021/05/19 02:18:21;;;;;;;5.67;2.30;;;10.20;99.90;;;;;;4156149;28;20099;-62
2021/05/19 02:20:23;;;;;;;10.43;5.10;;;10.20;99.90;;;;;;4157413;28;20513;-62
2021/05/19 02:22:24;;;;;;;4.23;2.20;;;10.20;99.90;;;;;;4155600;28;20740;-61
2021/05/19 02:24:25;;;;;;;3.43;1.87;;;10.20;99.90;;;;;;4140905;28;20460;-61
2021/05/19 02:26:27;;;;;;;4.03;2.20;;;10.20;99.90;;;;;;4140402;28;20026;-62
2021/05/19 02:28:28;;;;;;;4.53;2.67;;;10.20;99.90;;;;;;4140300;28;20056;-61
2021/05/19 02:30:31;;;;;;;5.43;2.00;;;10.20;99.90;;;;;;4139613;28;20084;-63
2021/05/19 02:32:32;;;;;;;4.90;3.23;;;10.10;99.90;;;;;;4156452;28;20072;-62
2021/05/19 02:34:33;;;;;;;4.73;2.60;;;10.20;99.90;;;;;;4156492;28;20037;-62
2021/05/19 02:36:36;;;;;;;5.77;2.83;;;10.10;99.90;;;;;;4156491;28;20037;-62
2021/05/19 02:38:38;;;;;;;4.67;3.03;;;10.20;99.90;;;;;;4156537;28;20087;-62
2021/05/19 02:40:39;;;;;;;4.63;3.13;;;10.10;99.90;;;;;;4156229;28;20033;-62
2021/05/19 02:42:41;;;;;;;7.70;4.67;;;10.00;99.90;;;;;;4155457;28;20041;-60
2021/05/19 02:44:42;;;;;;;8.50;3.80;;;10.10;99.90;;;;;;4155769;28;20037;-61
2021/05/19 02:46:45;;;;;;;8.73;3.93;;;10.00;99.90;;;;;;4156884;28;20487;-61
2021/05/19 02:48:46;;;;;;;4.67;3.00;;;10.00;99.90;;;;;;4155230;28;20038;-62
2021/05/19 02:50:47;;;;;;;6.53;3.87;;;10.00;99.90;;;;;;4156280;28;20050;-63
2021/05/19 02:52:49;;;;;;;5.33;3.33;;;10.00;99.90;;;;;;4155416;28;20037;-61
2021/05/19 02:54:51;;;;;;;8.00;2.90;;;10.00;99.90;;;;;;4156566;28;20055;-62
2021/05/19 02:56:52;;;;;;;5.23;2.67;;;10.00;99.90;;;;;;4156049;28;20099;-62
2021/05/19 02:58:54;;;;;;;3.67;2.30;;;10.00;99.90;;;;;;4156474;28;20025;-61
2021/05/19 03:00:55;;;;;;;7.17;2.37;;;10.00;99.90;;;;;;4155697;28;20025;-61
2021/05/19 03:02:56;;;;;;;3.83;2.57;;;10.00;99.90;;;;;;4156285;28;20097;-62
2021/05/19 03:04:57;;;;;;;7.17;3.70;;;10.00;99.90;;;;;;4155503;28;20496;-61
2021/05/19 03:06:59;;;;;;;10.37;4.30;;;10.10;99.90;;;;;;4155892;28;20045;-62
2021/05/19 03:09:01;;;;;;;5.57;3.00;;;10.20;99.90;;;;;;4155558;28;20045;-62
2021/05/19 03:11:03;;;;;;;8.73;3.50;;;10.20;99.90;;;;;;4155793;28;20033;-61
2021/05/19 03:13:05;;;;;;;7.43;3.13;;;10.40;99.90;;;;;;4155877;28;20469;-60
2021/05/19 03:15:08;;;;;;;10.47;3.60;;;10.70;99.90;;;;;;4154921;28;20091;-61
2021/05/19 03:17:09;;;;;;;6.67;3.37;;;11.00;99.90;;;;;;4155413;28;20045;-61
2021/05/19 03:19:10;;;;;;;5.73;2.93;;;11.40;99.90;;;;;;4154739;28;20041;-62
2021/05/19 03:21:11;;;;;;;6.73;2.47;;;11.70;99.90;;;;;;4156336;28;20482;-60
2021/05/19 03:23:12;;;;;;;3.23;2.50;;;12.10;99.90;;;;;;4154773;28;20037;-63
2021/05/19 03:25:14;;;;;;;6.37;2.90;;;12.30;99.90;;;;;;4156100;28;20029;-62
2021/05/19 03:27:15;;;;;;;4.83;2.57;;;12.70;99.90;;;;;;4154912;28;20095;-63
2021/05/19 03:29:16;;;;;;;2.77;2.40;;;13.00;99.90;;;;;;4156036;28;20390;-62
2021/05/19 03:31:18;;;;;;;4.07;2.17;;;13.40;99.90;;;;;;4154208;28;20075;-63
2021/05/19 03:33:20;;;;;;;5.50;2.77;;;13.80;99.90;;;;;;4155988;28;20025;-64
2021/05/19 03:35:21;;;;;;;5.10;2.43;;;14.10;99.90;;;;;;4154560;28;20029;-64
2021/05/19 03:37:22;;;;;;;6.27;2.23;;;14.30;99.90;;;;;;4155006;28;20087;-62
2021/05/19 03:39:24;;;;;;;5.37;2.40;;;14.50;99.90;;;;;;4154848;28;20076;-64
2021/05/19 03:41:25;;;;;;;6.70;1.90;;;14.80;99.90;;;;;;4153560;28;20076;-67
2021/05/19 03:43:26;;;;;;;4.57;2.30;;;15.00;99.90;;;;;;4155317;28;20033;-64
2021/05/19 03:45:28;;;;;;;4.57;1.77;;;15.30;99.90;;;;;;4154299;28;20045;-64
2021/05/19 03:47:29;;;;;;;5.90;1.90;;;15.60;99.90;;;;;;4154922;28;20107;-64
2021/05/19 03:49:34;;;;;;;2.73;1.83;;;15.90;99.90;;;;;;4154790;28;20491;-67
2021/05/19 03:51:36;;;;;;;5.13;1.80;;;16.20;99.90;;;;;;4155182;28;20045;-65
2021/05/19 03:53:39;;;;;;;4.93;1.90;;;16.50;99.90;;;;;;4154345;28;20477;-61
2021/05/19 03:55:43;;;;;;;3.90;2.00;;;16.70;99.90;;;;;;4156129;28;20079;-62
2021/05/19 03:57:44;;;;;;;3.40;1.70;;;17.00;99.90;;;;;;4153413;28;20079;-63
2021/05/19 03:59:45;;;;;;;3.20;1.80;;;17.30;99.90;;;;;;4155874;28;20029;-62
2021/05/19 04:01:47;;;;;;;4.15;1.95;;;17.80;99.90;;;;;;4153433;28;20057;-62
2021/05/19 04:03:51;;;;;;;1.50;1.40;;;18.00;99.90;;;;;;4154525;28;20087;-62
2021/05/19 04:05:52;;;;;;;4.00;1.52;;;18.30;99.90;;;;;;4154555;28;20037;-64
2021/05/19 04:07:55;;;;;;;3.22;1.30;;;18.40;99.90;;;;;;4155026;28;20042;-67
2021/05/19 04:09:56;;;;;;;7.57;1.48;;;18.70;99.90;;;;;;4154442;28;20033;-62
2021/05/19 04:11:57;;;;;;;4.22;1.35;;;19.00;99.90;;;;;;4154281;28;20464;-64
2021/05/19 04:13:58;;;;;;;6.18;1.40;;;19.60;99.90;;;;;;4153377;28;20083;-65
2021/05/19 04:16:00;;;;;;;3.17;1.10;;;19.80;99.90;;;;;;4152178;28;20045;-64
2021/05/19 04:18:02;;;;;;;3.95;1.60;;;19.90;99.40;;;;;;4154032;28;20091;-64
2021/05/19 04:20:04;;;;;;;3.33;1.25;;;20.00;98.80;;;;;;4153736;28;20025;-66
2021/05/19 04:22:05;;;;;;;4.10;1.50;;;20.00;97.90;;;;;;4154528;28;20568;-64
2021/05/19 04:24:06;;;;;;;4.45;1.05;;;19.80;97.30;;;;;;4153736;28;20033;-63
2021/05/19 04:26:08;;;;;;;2.03;1.13;;;20.00;97.00;;;;;;4154123;28;20091;-65
2021/05/19 04:28:10;;;;;;;2.35;1.08;;;20.20;96.30;;;;;;4148737;28;20033;-62
2021/05/19 04:30:13;;;;;;;2.90;1.13;;;20.50;94.90;;;;;;4153107;28;20076;-62
2021/05/19 04:32:14;;;;;;;3.80;1.00;;;20.70;94.20;;;;;;4153055;28;20717;-64
2021/05/19 04:34:16;;;;;;;2.85;1.17;;;20.80;92.90;;;;;;4153462;28;20091;-63
2021/05/19 04:36:17;;;;;;;5.70;1.33;;;20.80;92.70;;;;;;4152966;28;20507;-64
2021/05/19 04:38:18;;;;;;;3.55;1.15;;;21.20;92.20;;;;;;4154364;28;20049;-65
2021/05/19 04:40:19;;;;;;;7.63;1.65;;;21.50;91.00;;;;;;4153665;28;20087;-65
2021/05/19 04:42:20;;;;;;;7.35;2.28;;;21.80;90.10;;;;;;4153481;28;20482;-63
2021/05/19 04:44:21;;;;;;;3.05;1.42;;;21.90;89.10;;;;;;4154548;28;20049;-64
2021/05/19 04:46:23;;;;;;;3.42;1.20;;;22.20;87.20;;;;;;4154349;28;20442;-68
2021/05/19 04:48:24;;;;;;;3.05;0.80;;;22.50;85.10;;;;;;4153997;28;20091;-65
2021/05/19 04:50:25;;;;;;;4.75;1.38;;;22.60;82.90;;;;;;4153948;28;20037;-65
2021/05/19 04:52:26;;;;;;;2.92;1.55;;;22.60;82.00;;;;;;4154329;28;20037;-63
2021/05/19 04:54:28;;;;;;;9.80;1.50;;;22.60;80.90;;;;;;4153223;28;20564;-66
2021/05/19 04:56:29;;;;;;;3.08;0.98;;;22.70;79.50;;;;;;4154040;28;20091;-62
2021/05/19 04:58:30;;;;;;;4.13;0.93;;;22.50;78.50;;;;;;4153065;28;20042;-63
2021/05/19 05:00:32;;;;;;;5.57;1.35;;;22.20;79.10;;;;;;4154537;28;20156;-62
2021/05/19 05:02:33;;;;;;;4.60;1.10;;;22.30;78.40;;;;;;4152584;28;20054;-63
2021/05/19 05:04:35;;;;;;;4.97;0.95;;;22.40;77.60;;;;;;4138444;28;20131;-63
2021/05/19 05:06:36;;;;;;;2.92;1.17;;;21.70;77.30;;;;;;4136405;28;20038;-62
2021/05/19 05:08:37;;;;;;;2.22;0.80;;;21.20;79.60;;;;;;4137802;28;20029;-60
2021/05/19 05:10:38;;;;;;;5.57;1.13;;;21.10;80.10;;;;;;4137452;28;20037;-62
2021/05/19 05:12:40;;;;;;;5.25;1.10;;;21.50;79.50;;;;;;4137792;28;20510;-60
2021/05/19 05:14:41;;;;;;;6.85;1.02;;;21.90;77.80;;;;;;4148684;28;20033;-62
2021/05/19 05:16:42;;;;;;;3.83;0.77;;;22.20;76.50;;;;;;4154899;28;20045;-63
2021/05/19 05:18:43;;;;;;;3.75;1.17;;;22.70;75.30;;;;;;4157137;28;20087;-62
2021/05/19 05:20:45;;;;;;;4.30;1.02;;;23.30;73.70;;;;;;4156939;28;20083;-63
2021/05/19 05:22:47;;;;;;;3.08;1.05;;;23.60;72.30;;;;;;4156959;28;20053;-61
2021/05/19 05:24:48;;;;;;;4.75;1.45;;;23.70;71.60;;;;;;4156999;28;20049;-61
2021/05/19 05:26:49;;;;;;;1.52;0.95;;;23.70;70.70;;;;;;4156796;28;20520;-61
2021/05/19 05:28:51;;;;;;;6.15;3.65;;;24.00;70.40;;;;;;4155815;28;20087;-62
2021/05/19 05:30:52;;;;;;;4.32;1.40;;;24.00;69.30;;;;;;4157493;28;20104;-62
2021/05/19 05:32:53;;;;;;;0.98;0.80;;;24.40;68.20;;;;;;4155659;28;20049;-63
2021/05/19 05:35:00;;;;;;;1.50;0.60;;;24.80;67.10;;;;;;4157268;28;20091;-63
2021/05/19 05:37:02;;;;;;;5.57;0.95;;;24.90;65.00;;;;;;4156219;28;20029;-62
2021/05/19 05:39:04;;;;;;;6.13;0.98;;;24.40;66.40;;;;;;4155431;28;20191;-62
2021/05/19 05:41:05;;;;;;;6.57;1.20;;;24.40;66.30;;;;;;4155903;28;20067;-62
2021/05/19 05:43:16;;;;;;;1.42;0.90;;;24.60;65.80;;;;;;4157545;28;20106;-61
2021/05/19 05:45:17;;;;;;;3.63;0.63;;;24.80;65.40;;;;;;4155868;28;20103;-62
2021/05/19 05:47:19;;;;;;;1.63;0.88;;;24.40;65.30;;;;;;4156557;28;20033;-63
2021/05/19 05:49:20;;;;;;;1.30;1.00;;;24.60;65.20;;;;;;4155700;28;20163;-63
2021/05/19 05:51:21;;;;;;;2.10;0.73;;;24.20;65.10;;;;;;4156107;28;20150;-63
2021/05/19 05:53:22;;;;;;;2.47;0.60;;;24.00;66.10;;;;;;4157101;28;20549;-61
2021/05/19 05:55:23;;;;;;;5.00;0.60;;;23.80;65.70;;;;;;4156066;28;20092;-64
2021/05/19 05:57:24;;;;;;;1.63;0.57;;;23.00;66.50;;;;;;4156529;28;20079;-66
2021/05/19 05:59:26;;;;;;;1.42;0.90;;;22.90;67.50;;;;;;4154546;28;20045;-66
2021/05/19 06:01:27;;;;;;;1.58;0.77;;;22.80;67.50;;;;;;4157090;28;20088;-68
2021/05/19 06:03:28;;;;;;;2.28;0.50;;;22.60;67.80;;;;;;4153912;28;20041;-63
2021/05/19 06:05:29;;;;;;;2.38;0.70;;;22.40;68.10;;;;;;4156935;28;20480;-63
2021/05/19 06:07:30;;;;;;;0.73;0.40;;;22.30;68.40;;;;;;4155009;28;20057;-63
2021/05/19 06:09:31;;;;;;;2.22;0.63;;;22.10;68.40;;;;;;4156673;28;20449;-61
2021/05/19 06:11:33;;;;;;;1.77;0.50;;;21.40;68.90;;;;;;4155712;28;20381;-61
2021/05/19 06:13:35;;;;;;;1.25;0.65;;;21.50;70.10;;;;;;4157188;28;20029;-62
2021/05/19 06:15:36;;;;;;;3.10;1.52;;;21.50;69.80;;;;;;4156147;28;20045;-62
2021/05/19 06:17:38;;;;;;;4.22;1.70;;;22.00;70.10;;;;;;4156007;28;20520;-61
2021/05/19 06:19:40;;;;;;;2.72;1.00;;;21.60;70.30;;;;;;4155795;28;20109;-62
2021/05/19 06:21:41;;;;;;;3.00;0.77;;;21.70;70.00;;;;;;4155953;28;20431;-62
2021/05/19 06:23:42;;;;;;;1.52;0.65;;;21.70;69.90;;;;;;4156230;28;20037;-61
2021/05/19 06:25:43;;;;;;;1.52;0.60;;;21.70;69.90;;;;;;4155554;28;20099;-62
2021/05/19 06:27:44;;;;;;;3.50;0.90;;;21.70;69.60;;;;;;4155858;28;20103;-61
2021/05/19 06:29:46;;;;;;;2.95;1.23;;;21.30;70.00;;;;;;4154982;28;20095;-60
2021/05/19 06:31:47;;;;;;;3.90;1.15;;;20.50;71.90;;;;;;4138464;28;20096;-61
2021/05/19 06:33:48;;;;;;;3.08;1.45;;;20.30;73.50;;;;;;4155463;28;20501;-61
2021/05/19 06:35:49;;;;;;;3.35;1.90;;;20.20;74.00;;;;;;4155147;28;20037;-62
2021/05/19 06:37:50;;;;;;;4.07;1.73;;;20.30;74.50;;;;;;4155218;28;20079;-62
2021/05/19 06:39:51;;;;;;;1.67;1.30;;;20.20;74.60;;;;;;4155966;28;20485;-61
2021/05/19 06:41:53;;;;;;;6.95;1.92;;;20.40;74.90;;;;;;4155067;28;20091;-60
2021/05/19 06:43:54;;;;;;;3.25;2.90;;;20.10;74.90;;;;;;4156495;28;20079;-63
2021/05/19 06:45:55;;;;;;;3.90;2.88;;;19.80;75.80;;;;;;4152995;28;20513;-63
2021/05/19 06:47:57;;;;;;;4.10;1.60;;;19.70;76.00;;;;;;4156633;28;20049;-63
2021/05/19 06:49:59;;;;;;;5.95;3.63;;;19.30;76.60;;;;;;4155538;28;20029;-63
2021/05/19 06:52:00;;;;;;;2.80;1.50;;;18.90;77.50;;;;;;4155675;28;20096;-63
2021/05/19 06:54:01;;;;;;;0.80;0.52;;;18.90;78.60;;;;;;4155643;28;20156;-62
2021/05/19 06:56:03;;;;;;;1.98;0.70;;;18.90;78.70;;;;;;4155630;28;20087;-63
2021/05/19 06:58:04;;;;;;;3.08;1.33;;;18.90;79.10;;;;;;4155674;28;20029;-63
2021/05/19 07:00:09;;;;;;;4.85;1.55;;;18.70;79.30;;;;;;4154708;28;20041;-62
2021/05/19 07:02:10;;;;;;;3.10;2.20;;;18.20;80.70;;;;;;4153802;28;20057;-62
2021/05/19 07:04:11;;;;;;;4.75;1.42;;;18.10;82.00;;;;;;4154966;28;20072;-62
2021/05/19 07:06:13;;;;;;;3.15;1.30;;;18.10;83.20;;;;;;4155568;28;20049;-63
2021/05/19 07:08:14;;;;;;;3.83;2.42;;;18.10;83.80;;;;;;4153530;28;20984;-61
2021/05/19 07:10:15;;;;;;;1.40;1.30;;;18.00;84.60;;;;;;4155624;28;20087;-61
2021/05/19 07:12:16;;;;;;;1.50;0.80;;;18.00;85.80;;;;;;4154537;28;20041;-62
2021/05/19 07:14:18;;;;;;;1.15;0.98;;;18.00;87.30;;;;;;4156607;28;20033;-61
2021/05/19 07:16:22;;;;;;;5.60;0.98;;;18.20;88.00;;;;;;4153395;28;20091;-62
2021/05/19 07:18:23;;;;;;;1.98;1.02;;;18.40;87.70;;;;;;4155800;28;20072;-62
2021/05/19 07:20:25;;;;;;;3.03;0.70;;;18.80;86.90;;;;;;4154927;28;20025;-62
2021/05/19 07:22:30;;;;;;;3.03;1.42;;;19.30;85.90;;;;;;4155843;28;20033;-63
2021/05/19 07:24:31;;;;;;;2.35;0.90;;;19.50;84.10;;;;;;4152882;28;20091;-65
2021/05/19 07:26:33;;;;;;;1.30;0.82;;;19.20;83.90;;;;;;4154085;28;20568;-65
2021/05/19 07:28:34;;;;;;;2.10;0.90;;;19.00;83.40;;;;;;4154798;28;20622;-63
2021/05/19 07:30:36;;;;;;;2.92;1.30;;;19.00;84.30;;;;;;4155129;28;20072;-65
2021/05/19 07:32:37;;;;;;;1.50;0.52;;;18.80;84.30;;;;;;4154498;28;20382;-64
2021/05/19 07:34:39;;;;;;;8.30;0.90;;;18.50;84.00;;;;;;4154104;28;20147;-61
2021/05/19 07:36:40;;;;;;;3.97;0.77;;;18.30;84.90;;;;;;4155237;28;20036;-63
2021/05/19 07:38:41;;;;;;;2.00;1.15;;;18.20;86.40;;;;;;4154067;28;20090;-62
2021/05/19 07:40:42;;;;;;;3.33;0.57;;;18.20;86.90;;;;;;4155182;28;20045;-62
2021/05/19 07:42:44;;;;;;;4.25;2.10;;;18.20;87.00;;;;;;4154034;28;20037;-62
2021/05/19 07:44:45;;;;;;;3.58;1.15;;;18.20;87.90;;;;;;4155569;28;20493;-62
2021/05/19 07:46:46;;;;;;;6.20;1.52;;;18.20;87.90;;;;;;4153934;28;20544;-62
2021/05/19 07:48:47;;;;;;;2.15;1.60;;;18.30;88.30;;;;;;4154581;28;20037;-62
2021/05/19 07:50:49;;;;;;;1.92;1.38;;;18.40;88.10;;;;;;4152652;28;20495;-59
2021/05/19 07:52:51;;;;;;;1.85;0.80;;;18.40;88.30;;;;;;4155374;28;20025;-61
2021/05/19 07:54:52;;;;;;;2.10;0.75;;;18.30;88.00;;;;;;4154644;28;20120;-62
2021/05/19 07:56:59;;;;;;;2.25;1.65;;;18.40;88.50;;;;;;4155101;28;21014;-61
2021/05/19 07:59:07;;;;;;;4.10;1.63;;;18.40;87.90;;;;;;4154415;28;20021;-61
2021/05/19 08:03:30;;;;;;;2.30;0.80;;;18.50;89.20;;;;;;4154145;28;20088;-61
2021/05/19 08:05:31;;;;;;;1.02;0.65;;;18.50;87.90;;;;;;4154874;28;20037;-62
2021/05/19 08:07:33;;;;;;;4.40;0.60;;;18.20;88.60;;;;;;4154964;28;20041;-61
2021/05/19 08:09:34;;;;;;;1.25;0.65;;;18.20;89.60;;;;;;4154878;28;20087;-62
2021/05/19 08:11:37;;;;;;;2.75;0.60;;;17.90;88.70;;;;;;4154773;28;20041;-68
2021/05/19 08:13:41;;;;;;;1.95;0.93;;;17.80;90.20;;;;;;4154574;28;20067;-64
2021/05/19 08:15:42;;;;;;;0.88;0.50;;;17.90;90.50;;;;;;4154341;28;20072;-64
2021/05/19 08:17:43;;;;;;;4.45;0.68;;;18.10;90.30;;;;;;4153729;28;20095;-63
2021/05/19 08:19:44;;;;;;;4.72;0.98;;;18.40;89.80;;;;;;4153694;28;20041;-62
2021/05/19 08:21:46;;;;;;;1.65;0.85;;;18.60;89.00;;;;;;4153581;28;20428;-64
2021/05/19 08:23:47;;;;;;;1.58;0.70;;;18.80;87.90;;;;;;4155049;28;20034;-63
2021/05/19 08:25:48;;;;;;;1.05;0.57;;;19.00;86.90;;;;;;4153021;28;20057;-61
2021/05/19 08:27:49;;;;;;;0.20;0.20;;;19.10;84.80;;;;;;4154749;28;20468;-61
2021/05/19 08:29:52;;;;;;;5.00;1.20;;;19.00;82.70;;;;;;4154123;28;20033;-62
2021/05/19 08:31:53;;;;;;;1.77;1.02;;;18.90;83.10;;;;;;4154791;28;20374;-62
2021/05/19 08:33:57;;;;;;;3.28;0.80;;;18.60;84.10;;;;;;4153094;28;20084;-61
2021/05/19 08:35:58;;;;;;;1.60;0.57;;;18.40;84.80;;;;;;4154199;28;20071;-62
2021/05/19 08:37:59;;;;;;;0.30;0.30;;;18.30;86.30;;;;;;4153658;28;20053;-61
2021/05/19 08:40:00;;;;;;;1.50;1.10;;;18.40;86.50;;;;;;4154613;28;20432;-62
2021/05/19 08:42:02;;;;;;;0.60;0.60;;;18.40;85.20;;;;;;4153901;28;20354;-62
2021/05/19 08:44:07;;;;;;;5.05;0.68;;;18.50;84.70;;;;;;4153868;28;20489;-62
2021/05/19 08:46:10;;;;;;;1.77;0.43;;;18.50;84.00;;;;;;4154347;28;20041;-62
2021/05/19 08:48:11;;;;;;;2.90;0.57;;;18.70;82.60;;;;;;4154016;28;20144;-61
2021/05/19 08:50:12;;;;;;;1.30;0.60;;;18.80;81.20;;;;;;4156587;28;20596;-62
2021/05/19 08:52:13;;;;;;;2.63;0.65;;;18.80;81.70;;;;;;4156668;28;20091;-61
2021/05/19 08:54:17;;;;;;;5.00;0.70;;;19.10;81.50;;;;;;4157769;28;20037;-62
2021/05/19 08:56:18;;;;;;;2.20;0.25;;;19.40;81.00;;;;;;4156008;28;20358;-62
2021/05/19 08:58:20;;;;;;;2.15;0.70;;;19.50;80.20;;;;;;4158056;28;20029;-62
2021/05/19 09:00:21;;;;;;;3.10;0.70;;;19.40;80.10;;;;;;4156138;28;20045;-62
2021/05/19 09:02:23;;;;;;;0.60;0.40;;;19.40;78.70;;;;;;4158050;28;20045;-61
2021/05/19 09:04:24;;;;;;;1.27;0.28;;;19.30;78.50;;;;;;4156901;28;20368;-62
2021/05/19 09:06:26;;;;;;;1.33;0.20;;;19.10;77.20;;;;;;4157352;28;20464;-62
2021/05/19 09:08:36;;;;;;;3.67;1.10;;;19.10;76.70;;;;;;4156353;28;20049;-61
2021/05/19 09:10:40;;;;;;;1.70;0.40;;;19.30;77.80;;;;;;4156934;28;20045;-61
2021/05/19 09:12:41;;;;;;;3.45;0.50;;;19.30;78.40;;;;;;4156103;28;20111;-61
2021/05/19 09:14:58;;;;;;;1.83;0.90;;;19.20;78.90;;;;;;4157348;28;20037;-63
2021/05/19 09:17:23;;;;;;;2.90;0.70;;;19.30;79.40;;;;;;4156630;28;20087;-62
2021/05/19 09:19:34;;;;;;;2.20;1.33;;;19.40;78.70;;;;;;4155904;28;20331;-64
2021/05/19 09:21:40;;;;;;;2.33;0.75;;;19.20;78.40;;;;;;4156929;28;20081;-63
2021/05/19 09:23:50;;;;;;;10.45;0.80;;;19.30;79.60;;;;;;4157586;28;20427;-63
2021/05/19 09:26:04;;;;;;;3.45;0.73;;;19.00;77.60;;;;;;4156695;28;20095;-63
2021/05/19 09:28:07;;;;;;;3.00;0.70;;;18.70;77.20;;;;;;4157402;28;20041;-62
2021/05/19 09:30:10;;;;;;;1.35;0.30;;;18.70;77.60;;;;;;4156670;28;20808;-63
2021/05/19 09:32:13;;;;;;;0.80;0.32;;;18.80;77.20;;;;;;4156774;28;20079;-61
2021/05/19 09:34:25;;;;;;;1.45;0.70;;;19.00;76.50;;;;;;4156535;28;20029;-61
2021/05/19 09:36:26;;;;;;;1.90;0.57;;;19.20;75.90;;;;;;4155477;28;20161;-63
2021/05/19 09:38:29;;;;;;;1.42;0.30;;;19.20;76.40;;;;;;4156944;28;20099;-61
2021/05/19 09:40:30;;;;;;;2.15;0.40;;;19.20;75.20;;;;;;4156403;28;20464;-61
2021/05/19 09:42:37;;;;;;;5.00;0.65;;;19.10;74.80;;;;;;4156488;28;20041;-62
2021/05/19 09:44:39;;;;;;;0.90;0.38;;;19.20;74.70;;;;;;4156714;28;20041;-61
2021/05/19 09:46:47;;;;;;;3.63;0.38;;;19.30;75.30;;;;;;4156286;28;20726;-63
2021/05/19 09:49:16;;;;;;;0.80;0.40;;;19.50;74.30;;;;;;4154363;28;20673;-62
2021/05/19 09:51:27;;;;;;;0.35;0.30;;;19.60;74.40;;;;;;4156888;28;20033;-62
2021/05/19 09:53:32;;;;;;;3.85;0.75;;;19.40;73.90;;;;;;4155707;28;20041;-61
2021/05/19 09:55:39;;;;;;;1.70;0.30;;;19.20;74.80;;;;;;4156559;28;20038;-62
2021/05/19 09:57:42;;;;;;;1.30;0.50;;;18.80;76.10;;;;;;4156027;28;20884;-63
2021/05/19 09:59:45;;;;;;;6.35;1.23;;;18.50;77.00;;;;;;4155928;28;20080;-62
2021/05/19 10:01:46;;;;;;;1.02;0.90;;;18.60;77.90;;;;;;4154592;28;20443;-63
2021/05/19 10:03:47;;;;;;;3.42;0.65;;;18.60;77.90;;;;;;4156708;28;20095;-62
2021/05/19 10:05:59;;;;;;;2.15;0.30;;;18.80;78.40;;;;;;4155125;28;20129;-62
2021/05/19 10:08:00;;;;;;;1.75;0.30;;;18.90;78.40;;;;;;4156232;28;20041;-63
2021/05/19 10:10:01;;;;;;;3.95;2.08;;;18.90;77.90;;;;;;4155398;28;20037;-62
2021/05/19 10:12:03;;;;;;;2.97;1.02;;;18.90;79.00;;;;;;4156763;28;20099;-62
2021/05/19 10:14:09;;;;;;;1.40;0.40;;;19.00;78.70;;;;;;4155077;28;20091;-62
2021/05/19 10:16:16;;;;;;;2.60;0.28;;;18.90;77.90;;;;;;4157135;28;20037;-63
2021/05/19 10:18:20;;;;;;;3.53;0.50;;;18.80;74.30;;;;;;4155092;28;20030;-62
2021/05/19 10:20:27;;;;;;;0.90;0.32;;;18.50;76.20;;;;;;4156562;28;20075;-62
2021/05/19 10:22:29;;;;;;;4.30;0.70;;;18.60;76.80;;;;;;4155198;28;20033;-61
2021/05/19 10:24:59;;;;;;;1.42;0.35;;;18.80;76.50;;;;;;4156473;28;20078;-63
2021/05/19 10:27:07;;;;;;;2.58;0.40;;;18.80;75.10;;;;;;4155289;28;20489;-62
2021/05/19 10:29:08;;;;;;;4.63;1.05;;;18.50;75.60;;;;;;4156181;28;20424;-62
2021/05/19 10:31:30;;;;;;;2.30;0.82;;;18.40;76.70;;;;;;4155157;28;20033;-62
2021/05/19 10:33:37;;;;;;;3.70;0.45;;;18.40;77.60;;;;;;4156491;28;20080;-62
2021/05/19 10:35:38;;;;;;;0.90;0.45;;;18.40;77.20;;;;;;4154598;28;20131;-61
2021/05/19 10:37:46;;;;;;;0.60;0.40;;;18.40;77.10;;;;;;4155919;28;20738;-62
2021/05/19 10:39:47;;;;;;;5.88;0.88;;;18.40;77.40;;;;;;4155584;28;20033;-62
2021/05/19 10:41:51;;;;;;;1.45;0.60;;;18.50;79.00;;;;;;4155594;28;20030;-62